createdAt,value
2023-03-28T00:00:03.161Z,1006.13
2023-03-28T00:01:02.192Z,1006.09
2023-03-28T00:02:02.195Z,1006.09
2023-03-28T00:03:02.245Z,1006.20
2023-03-28T00:04:02.138Z,1006.20
2023-03-28T00:05:03.176Z,1006.16
2023-03-28T00:06:02.356Z,1006.15
2023-03-28T00:07:02.091Z,1006.20
2023-03-28T00:08:02.065Z,1006.15
2023-03-28T00:09:02.052Z,1006.11
2023-03-28T00:10:02.061Z,1006.11
2023-03-28T00:11:02.075Z,1006.19
2023-03-28T00:12:02.042Z,1006.20
2023-03-28T00:13:03.037Z,1006.23
2023-03-28T00:14:03.012Z,1006.24
2023-03-28T00:15:01.985Z,1006.24
2023-03-28T00:16:02.294Z,1006.16
2023-03-28T00:17:02.001Z,1006.22
2023-03-28T00:18:02.029Z,1006.24
2023-03-28T00:19:01.987Z,1006.20
2023-03-28T00:20:02.008Z,1006.27
2023-03-28T00:21:01.940Z,1006.22
2023-03-28T00:22:02.914Z,1006.24
2023-03-28T00:23:01.941Z,1006.19
2023-03-28T00:24:01.965Z,1006.25
2023-03-28T00:25:02.904Z,1006.24
2023-03-28T00:26:01.895Z,1006.22
2023-03-28T00:27:01.851Z,1006.21
2023-03-28T00:28:01.867Z,1006.19
2023-03-28T00:29:01.852Z,1006.24
2023-03-28T00:30:01.832Z,1006.24
2023-03-28T00:31:01.829Z,1006.30
2023-03-28T00:32:01.816Z,1006.20
2023-03-28T00:33:01.881Z,1006.28
2023-03-28T00:34:01.789Z,1006.30
2023-03-28T00:35:01.796Z,1006.27
2023-03-28T00:36:02.284Z,1006.30
2023-03-28T00:37:01.736Z,1006.20
2023-03-28T00:38:02.773Z,1006.21
2023-03-28T00:39:01.728Z,1006.24
2023-03-28T00:40:01.817Z,1006.21
2023-03-28T00:41:01.713Z,1006.15
2023-03-28T00:42:01.768Z,1006.20
2023-03-28T00:43:01.685Z,1006.19
2023-03-28T00:44:02.689Z,1006.23
2023-03-28T00:45:01.680Z,1006.21
2023-03-28T00:46:09.127Z,1006.17
2023-03-28T00:47:02.726Z,1006.19
2023-03-28T00:48:01.699Z,1006.23
2023-03-28T00:49:01.621Z,1006.27
2023-03-28T00:50:01.690Z,1006.17
2023-03-28T00:51:01.597Z,1006.24
2023-03-28T00:52:01.619Z,1006.22
2023-03-28T00:53:02.594Z,1006.31
2023-03-28T00:54:01.573Z,1006.21
2023-03-28T00:55:01.567Z,1006.19
2023-03-28T00:56:02.522Z,1006.28
2023-03-28T00:57:01.554Z,1006.24
2023-03-28T00:58:01.587Z,1006.24
2023-03-28T00:59:01.520Z,1006.28
2023-03-28T01:00:01.508Z,1006.30
2023-03-28T01:01:02.548Z,1006.28
2023-03-28T01:02:02.579Z,1006.36
2023-03-28T01:03:01.701Z,1006.33
2023-03-28T01:04:02.576Z,1006.33
2023-03-28T01:05:01.438Z,1006.30
2023-03-28T01:06:02.586Z,1006.40
2023-03-28T01:07:01.469Z,1006.33
2023-03-28T01:08:01.400Z,1006.34
2023-03-28T01:09:01.457Z,1006.36
2023-03-28T01:10:01.399Z,1006.32
2023-03-28T01:11:01.395Z,1006.37
2023-03-28T01:12:02.376Z,1006.32
2023-03-28T01:13:02.385Z,1006.40
2023-03-28T01:14:02.359Z,1006.32
2023-03-28T01:15:01.374Z,1006.36
2023-03-28T01:16:01.534Z,1006.35
2023-03-28T01:17:01.300Z,1006.33
2023-03-28T01:18:01.330Z,1006.41
2023-03-28T01:19:01.943Z,1006.44
2023-03-28T01:20:01.285Z,1006.33
2023-03-28T01:21:01.244Z,1006.48
2023-03-28T01:22:01.264Z,1006.36
2023-03-28T01:23:01.296Z,1006.48
2023-03-28T01:24:11.965Z,1006.45
2023-03-28T01:25:02.238Z,1006.40
2023-03-28T01:26:01.429Z,1006.35
2023-03-28T01:27:02.206Z,1006.45
2023-03-28T01:28:01.166Z,1006.46
2023-03-28T01:29:01.943Z,1006.43
2023-03-28T01:30:01.204Z,1006.41
2023-03-28T01:31:01.160Z,1006.50
2023-03-28T01:32:01.241Z,1006.43
2023-03-28T01:33:01.205Z,1006.50
2023-03-28T01:34:02.158Z,1006.49
2023-03-28T01:35:01.134Z,1006.45
2023-03-28T01:36:01.352Z,1006.49
2023-03-28T01:37:02.092Z,1006.44
2023-03-28T01:38:01.106Z,1006.48
2023-03-28T01:39:01.103Z,1006.47
2023-03-28T01:40:01.101Z,1006.40
2023-03-28T01:41:01.923Z,1006.48
2023-03-28T01:42:01.071Z,1006.37
2023-03-28T01:43:01.024Z,1006.47
2023-03-28T01:44:01.033Z,1006.46
2023-03-28T01:45:00.996Z,1006.43
2023-03-28T01:46:01.160Z,1006.50
2023-03-28T01:47:01.009Z,1006.51
2023-03-28T01:48:01.041Z,1006.44
2023-03-28T01:49:00.950Z,1006.45
2023-03-28T01:50:00.977Z,1006.50
2023-03-28T01:51:00.946Z,1006.48
2023-03-28T01:52:00.934Z,1006.48
2023-03-28T01:53:00.920Z,1006.51
2023-03-28T01:54:00.918Z,1006.58
2023-03-28T01:55:00.898Z,1006.48
2023-03-28T01:56:01.124Z,1006.53
2023-03-28T01:57:00.988Z,1006.54
2023-03-28T01:58:00.917Z,1006.60
2023-03-28T01:59:00.859Z,1006.63
2023-03-28T02:00:00.871Z,1006.65
2023-03-28T02:01:00.875Z,1006.62
2023-03-28T02:02:00.840Z,1006.58
2023-03-28T02:03:00.943Z,1006.59
2023-03-28T02:04:00.799Z,1006.61
2023-03-28T02:05:00.790Z,1006.59
2023-03-28T02:06:01.035Z,1006.64
2023-03-28T02:07:00.768Z,1006.61
2023-03-28T02:08:00.748Z,1006.64
2023-03-28T02:09:00.779Z,1006.63
2023-03-28T02:10:01.819Z,1006.59
2023-03-28T02:11:01.713Z,1006.57
2023-03-28T02:12:08.348Z,1006.72
2023-03-28T02:13:01.688Z,1006.62
2023-03-28T02:14:00.673Z,1006.58
2023-03-28T02:15:00.703Z,1006.60
2023-03-28T02:16:00.980Z,1006.59
2023-03-28T02:17:01.670Z,1006.65
2023-03-28T02:18:00.715Z,1006.71
2023-03-28T02:19:00.640Z,1006.69
2023-03-28T02:20:00.661Z,1006.70
2023-03-28T02:21:00.617Z,1006.71
2023-03-28T02:22:00.638Z,1006.77
2023-03-28T02:23:00.584Z,1006.79
2023-03-28T02:24:00.574Z,1006.74
2023-03-28T02:25:01.571Z,1006.79
2023-03-28T02:26:00.992Z,1006.72
2023-03-28T02:27:00.578Z,1006.78
2023-03-28T02:28:01.549Z,1006.90
2023-03-28T02:29:01.530Z,1006.90
2023-03-28T02:30:00.544Z,1006.90
2023-03-28T02:31:01.534Z,1006.99
2023-03-28T02:32:00.593Z,1006.84
2023-03-28T02:33:00.592Z,1007.06
2023-03-28T02:34:01.500Z,1006.98
2023-03-28T02:35:00.500Z,1006.97
2023-03-28T02:36:00.658Z,1006.89
2023-03-28T02:37:01.544Z,1006.92
2023-03-28T02:38:01.424Z,1006.99
2023-03-28T02:39:00.425Z,1006.98
2023-03-28T02:40:00.418Z,1006.92
2023-03-28T02:41:00.421Z,1007.02
2023-03-28T02:42:00.449Z,1006.97
2023-03-28T02:43:00.407Z,1006.91
2023-03-28T02:44:00.358Z,1006.89
2023-03-28T02:45:00.356Z,1006.81
2023-03-28T02:46:00.632Z,1006.91
2023-03-28T02:47:01.341Z,1006.89
2023-03-28T02:48:00.441Z,1006.88
2023-03-28T02:49:00.349Z,1006.93
2023-03-28T02:50:00.927Z,1006.86
2023-03-28T02:51:00.288Z,1006.96
2023-03-28T02:52:00.257Z,1006.92
2023-03-28T02:53:00.291Z,1006.90
2023-03-28T02:54:00.269Z,1006.88
2023-03-28T02:55:00.294Z,1006.82
2023-03-28T02:56:01.476Z,1006.94
2023-03-28T02:57:00.290Z,1006.87
2023-03-28T02:58:00.230Z,1006.98
2023-03-28T02:59:00.209Z,1007.01
2023-03-28T03:00:00.941Z,1006.96
2023-03-28T03:01:00.212Z,1007.14
2023-03-28T03:02:00.197Z,1007.01
2023-03-28T03:03:00.250Z,1006.97
2023-03-28T03:04:00.252Z,1007.01
2023-03-28T03:05:01.148Z,1007.00
2023-03-28T03:06:00.371Z,1007.01
2023-03-28T03:07:01.179Z,1007.09
2023-03-28T03:08:00.168Z,1007.11
2023-03-28T03:09:00.083Z,1007.06
2023-03-28T03:10:01.098Z,1007.15
2023-03-28T03:11:00.102Z,1007.13
2023-03-28T03:12:00.192Z,1007.11
2023-03-28T03:13:00.917Z,1007.12
2023-03-28T03:14:00.051Z,1007.04
2023-03-28T03:15:00.044Z,1007.17
2023-03-28T03:16:00.368Z,1007.24
2023-03-28T03:17:00.021Z,1007.21
2023-03-28T03:18:00.032Z,1007.18
2023-03-28T03:18:59.993Z,1007.19
2023-03-28T03:20:00.964Z,1007.19
2023-03-28T03:21:00.989Z,1007.11
2023-03-28T03:21:59.942Z,1007.17
2023-03-28T03:23:00.967Z,1007.30
2023-03-28T03:23:59.917Z,1007.18
2023-03-28T03:24:59.916Z,1007.23
2023-03-28T03:26:00.035Z,1007.23
2023-03-28T03:26:59.899Z,1007.21
2023-03-28T03:27:59.907Z,1007.21
2023-03-28T03:28:59.888Z,1007.32
2023-03-28T03:29:59.880Z,1007.26
2023-03-28T03:30:59.858Z,1007.33
2023-03-28T03:31:59.828Z,1007.35
2023-03-28T03:32:59.871Z,1007.36
2023-03-28T03:34:00.855Z,1007.45
2023-03-28T03:34:59.832Z,1007.35
2023-03-28T03:36:00.089Z,1007.38
2023-03-28T03:37:00.760Z,1007.47
2023-03-28T03:37:59.795Z,1007.40
2023-03-28T03:38:59.795Z,1007.36
2023-03-28T03:39:59.767Z,1007.44
2023-03-28T03:40:59.722Z,1007.44
2023-03-28T03:41:59.734Z,1007.44
2023-03-28T03:43:00.712Z,1007.49
2023-03-28T03:43:59.741Z,1007.57
2023-03-28T03:44:59.689Z,1007.59
2023-03-28T03:46:01.095Z,1007.47
2023-03-28T03:46:59.656Z,1007.66
2023-03-28T03:47:59.719Z,1007.55
2023-03-28T03:48:59.642Z,1007.72
2023-03-28T03:50:00.659Z,1007.65
2023-03-28T03:50:59.663Z,1007.68
2023-03-28T03:51:59.644Z,1007.71
2023-03-28T03:52:59.586Z,1007.71
2023-03-28T03:53:59.607Z,1007.75
2023-03-28T03:54:59.584Z,1007.75
2023-03-28T03:56:00.821Z,1007.82
2023-03-28T03:57:00.604Z,1007.81
2023-03-28T03:57:59.569Z,1007.80
2023-03-28T03:58:59.556Z,1007.82
2023-03-28T03:59:59.529Z,1007.82
2023-03-28T04:00:59.545Z,1007.81
2023-03-28T04:01:59.630Z,1007.79
2023-03-28T04:02:59.508Z,1007.82
2023-03-28T04:04:00.516Z,1007.80
2023-03-28T04:04:59.461Z,1007.81
2023-03-28T04:06:01.532Z,1007.87
2023-03-28T04:06:59.466Z,1007.81
2023-03-28T04:07:59.470Z,1007.84
2023-03-28T04:08:59.438Z,1007.92
2023-03-28T04:10:00.498Z,1007.85
2023-03-28T04:10:59.414Z,1007.94
2023-03-28T04:12:00.385Z,1007.89
2023-03-28T04:12:59.410Z,1007.96
2023-03-28T04:13:59.370Z,1007.95
2023-03-28T04:14:59.359Z,1008.02
2023-03-28T04:16:00.529Z,1007.99
2023-03-28T04:17:00.371Z,1008.01
2023-03-28T04:17:59.992Z,1007.98
2023-03-28T04:18:59.319Z,1008.07
2023-03-28T04:19:59.308Z,1008.05
2023-03-28T04:20:59.358Z,1008.04
2023-03-28T04:21:59.288Z,1008.11
2023-03-28T04:22:59.348Z,1008.12
2023-03-28T04:24:00.261Z,1008.11
2023-03-28T04:25:00.313Z,1008.13
2023-03-28T04:25:59.468Z,1008.18
2023-03-28T04:26:59.250Z,1008.16
2023-03-28T04:27:59.229Z,1008.20
2023-03-28T04:28:59.256Z,1008.24
2023-03-28T04:29:59.211Z,1008.28
2023-03-28T04:30:59.334Z,1008.23
2023-03-28T04:31:59.241Z,1008.30
2023-03-28T04:32:59.252Z,1008.31
2023-03-28T04:33:59.192Z,1008.34
2023-03-28T04:34:59.172Z,1008.25
2023-03-28T04:35:59.403Z,1008.33
2023-03-28T04:37:00.158Z,1008.38
2023-03-28T04:37:59.151Z,1008.36
2023-03-28T04:39:00.111Z,1008.39
2023-03-28T04:39:59.089Z,1008.42
2023-03-28T04:41:00.112Z,1008.44
2023-03-28T04:41:59.113Z,1008.41
2023-03-28T04:42:59.845Z,1008.44
2023-03-28T04:44:00.123Z,1008.44
2023-03-28T04:44:59.032Z,1008.41
2023-03-28T04:45:59.295Z,1008.47
2023-03-28T04:47:00.087Z,1008.43
2023-03-28T04:47:59.072Z,1008.54
2023-03-28T04:48:59.975Z,1008.50
2023-03-28T04:50:00.020Z,1008.56
2023-03-28T04:50:59.021Z,1008.53
2023-03-28T04:51:59.980Z,1008.61
2023-03-28T04:52:58.949Z,1008.58
2023-03-28T04:53:58.972Z,1008.61
2023-03-28T04:54:58.942Z,1008.68
2023-03-28T04:55:59.128Z,1008.67
2023-03-28T04:56:58.985Z,1008.70
2023-03-28T04:57:59.901Z,1008.71
2023-03-28T04:58:58.891Z,1008.70
2023-03-28T04:59:58.911Z,1008.71
2023-03-28T05:00:59.244Z,1008.75
2023-03-28T05:01:59.075Z,1008.72
2023-03-28T05:03:00.065Z,1008.65
2023-03-28T05:03:58.812Z,1008.70
2023-03-28T05:04:58.844Z,1008.74
2023-03-28T05:05:59.841Z,1008.72
2023-03-28T05:06:58.811Z,1008.83
2023-03-28T05:07:58.811Z,1008.83
2023-03-28T05:08:58.771Z,1008.75
2023-03-28T05:09:58.778Z,1008.82
2023-03-28T05:10:58.985Z,1008.86
2023-03-28T05:11:58.756Z,1008.84
2023-03-28T05:12:58.752Z,1008.87
2023-03-28T05:13:59.732Z,1008.95
2023-03-28T05:14:58.747Z,1008.97
2023-03-28T05:15:58.704Z,1008.92
2023-03-28T05:16:58.682Z,1008.88
2023-03-28T05:17:58.723Z,1008.93
2023-03-28T05:18:59.029Z,1008.94
2023-03-28T05:19:58.650Z,1008.99
2023-03-28T05:20:58.907Z,1008.98
2023-03-28T05:21:58.650Z,1009.00
2023-03-28T05:22:58.606Z,1008.99
2023-03-28T05:23:58.624Z,1009.02
2023-03-28T05:24:58.622Z,1008.97
2023-03-28T05:25:59.582Z,1009.03
2023-03-28T05:26:58.564Z,1009.03
2023-03-28T05:27:58.566Z,1009.07
2023-03-28T05:28:59.555Z,1009.06
2023-03-28T05:29:58.551Z,1009.10
2023-03-28T05:30:58.801Z,1009.14
2023-03-28T05:31:58.529Z,1009.17
2023-03-28T05:32:58.624Z,1009.11
2023-03-28T05:33:59.496Z,1009.10
2023-03-28T05:34:58.474Z,1009.10
2023-03-28T05:35:58.530Z,1009.10
2023-03-28T05:36:58.481Z,1009.14
2023-03-28T05:37:58.475Z,1009.18
2023-03-28T05:38:58.437Z,1009.15
2023-03-28T05:39:58.408Z,1009.16
2023-03-28T05:40:58.781Z,1009.14
2023-03-28T05:41:58.452Z,1009.17
2023-03-28T05:42:58.425Z,1009.20
2023-03-28T05:43:58.375Z,1009.18
2023-03-28T05:44:58.365Z,1009.20
2023-03-28T05:45:58.404Z,1009.22
2023-03-28T05:46:58.363Z,1009.25
2023-03-28T05:47:58.430Z,1009.25
2023-03-28T05:48:58.334Z,1009.28
2023-03-28T05:49:58.328Z,1009.24
2023-03-28T05:50:59.472Z,1009.23
2023-03-28T05:51:58.292Z,1009.27
2023-03-28T05:52:58.291Z,1009.27
2023-03-28T05:53:58.305Z,1009.28
2023-03-28T05:54:58.272Z,1009.38
2023-03-28T05:55:58.316Z,1009.33
2023-03-28T05:56:58.320Z,1009.36
2023-03-28T05:57:58.231Z,1009.37
2023-03-28T05:58:58.229Z,1009.40
2023-03-28T05:59:58.225Z,1009.35
2023-03-28T06:00:59.426Z,1009.45
2023-03-28T06:01:58.179Z,1009.44
2023-03-28T06:02:58.235Z,1009.49
2023-03-28T06:03:59.175Z,1009.47
2023-03-28T06:04:58.230Z,1009.46
2023-03-28T06:05:58.146Z,1009.50
2023-03-28T06:06:58.152Z,1009.55
2023-03-28T06:07:58.178Z,1009.55
2023-03-28T06:08:58.160Z,1009.60
2023-03-28T06:09:58.122Z,1009.65
2023-03-28T06:10:58.250Z,1009.59
2023-03-28T06:11:59.084Z,1009.59
2023-03-28T06:12:58.049Z,1009.68
2023-03-28T06:13:59.077Z,1009.71
2023-03-28T06:14:58.087Z,1009.76
2023-03-28T06:15:58.041Z,1009.69
2023-03-28T06:16:58.042Z,1009.77
2023-03-28T06:17:59.042Z,1009.72
2023-03-28T06:19:10.472Z,1009.71
2023-03-28T06:19:59.087Z,1009.78
2023-03-28T06:20:58.295Z,1009.78
2023-03-28T06:21:57.973Z,1009.76
2023-03-28T06:22:57.951Z,1009.87
2023-03-28T06:23:57.947Z,1009.82
2023-03-28T06:24:57.925Z,1009.82
2023-03-28T06:25:57.965Z,1009.81
2023-03-28T06:26:57.955Z,1009.83
2023-03-28T06:27:57.996Z,1009.94
2023-03-28T06:28:57.905Z,1009.90
2023-03-28T06:29:58.862Z,1009.88
2023-03-28T06:30:57.973Z,1009.96
2023-03-28T06:31:58.960Z,1009.93
2023-03-28T06:32:57.961Z,1009.90
2023-03-28T06:33:58.828Z,1009.95
2023-03-28T06:34:57.846Z,1010.01
2023-03-28T06:35:57.870Z,1009.95
2023-03-28T06:36:57.836Z,1010.01
2023-03-28T06:37:57.794Z,1009.99
2023-03-28T06:38:58.803Z,1010.08
2023-03-28T06:39:58.798Z,1010.07
2023-03-28T06:40:58.041Z,1010.03
2023-03-28T06:41:57.774Z,1010.19
2023-03-28T06:42:57.772Z,1010.16
2023-03-28T06:43:57.735Z,1010.16
2023-03-28T06:44:58.728Z,1010.18
2023-03-28T06:45:57.752Z,1010.15
2023-03-28T06:46:57.716Z,1010.15
2023-03-28T06:47:58.766Z,1010.18
2023-03-28T06:48:57.739Z,1010.18
2023-03-28T06:49:58.670Z,1010.22
2023-03-28T06:50:57.716Z,1010.26
2023-03-28T06:51:58.669Z,1010.26
2023-03-28T06:52:57.614Z,1010.23
2023-03-28T06:53:58.655Z,1010.28
2023-03-28T06:54:57.809Z,1010.31
2023-03-28T06:55:57.619Z,1010.33
2023-03-28T06:56:58.599Z,1010.33
2023-03-28T06:57:57.597Z,1010.29
2023-03-28T06:58:57.565Z,1010.35
2023-03-28T06:59:57.553Z,1010.32
2023-03-28T07:00:57.652Z,1010.35
2023-03-28T07:01:57.690Z,1010.41
2023-03-28T07:02:58.589Z,1010.42
2023-03-28T07:03:57.810Z,1010.41
2023-03-28T07:04:57.506Z,1010.45
2023-03-28T07:05:57.494Z,1010.49
2023-03-28T07:06:58.517Z,1010.43
2023-03-28T07:07:58.473Z,1010.40
2023-03-28T07:08:58.507Z,1010.41
2023-03-28T07:09:57.438Z,1010.43
2023-03-28T07:10:57.664Z,1010.45
2023-03-28T07:11:58.406Z,1010.46
2023-03-28T07:12:57.408Z,1010.41
2023-03-28T07:13:57.425Z,1010.50
2023-03-28T07:14:57.427Z,1010.47
2023-03-28T07:15:57.367Z,1010.48
2023-03-28T07:16:57.478Z,1010.50
2023-03-28T07:17:58.474Z,1010.44
2023-03-28T07:18:57.365Z,1010.45
2023-03-28T07:19:58.340Z,1010.47
2023-03-28T07:21:04.115Z,1010.53
2023-03-28T07:21:58.319Z,1010.49
2023-03-28T07:22:57.345Z,1010.48
2023-03-28T07:23:57.329Z,1010.58
2023-03-28T07:24:57.272Z,1010.59
2023-03-28T07:25:57.277Z,1010.62
2023-03-28T07:27:14.214Z,1010.63
2023-03-28T07:27:58.248Z,1010.58
2023-03-28T07:28:57.286Z,1010.63
2023-03-28T07:29:58.261Z,1010.62
2023-03-28T07:30:57.418Z,1010.62
2023-03-28T07:31:57.300Z,1010.68
2023-03-28T07:33:10.241Z,1010.65
2023-03-28T07:33:58.290Z,1010.73
2023-03-28T07:34:58.182Z,1010.69
2023-03-28T07:35:58.181Z,1010.67
2023-03-28T07:36:57.143Z,1010.71
2023-03-28T07:37:57.148Z,1010.73
2023-03-28T07:38:58.135Z,1010.78
2023-03-28T07:39:58.170Z,1010.77
2023-03-28T07:40:57.164Z,1010.76
2023-03-28T07:41:57.091Z,1010.77
2023-03-28T07:42:57.076Z,1010.83
2023-03-28T07:43:57.130Z,1010.88
2023-03-28T07:44:57.089Z,1010.82
2023-03-28T07:45:57.097Z,1010.81
2023-03-28T07:46:57.106Z,1010.80
2023-03-28T07:47:58.138Z,1010.77
2023-03-28T07:48:57.015Z,1010.91
2023-03-28T07:49:57.021Z,1010.83
2023-03-28T07:50:57.120Z,1010.86
2023-03-28T07:51:56.993Z,1010.92
2023-03-28T07:52:57.024Z,1010.97
2023-03-28T07:53:56.969Z,1010.88
2023-03-28T07:54:57.960Z,1010.91
2023-03-28T07:55:56.989Z,1010.89
2023-03-28T07:56:57.005Z,1010.94
2023-03-28T07:57:56.925Z,1010.89
2023-03-28T07:58:57.938Z,1010.95
2023-03-28T07:59:57.975Z,1010.96
2023-03-28T08:00:56.897Z,1010.98
2023-03-28T08:01:56.915Z,1011.02
2023-03-28T08:02:57.011Z,1011.04
2023-03-28T08:03:57.986Z,1011.01
2023-03-28T08:04:56.840Z,1011.03
2023-03-28T08:05:56.888Z,1011.05
2023-03-28T08:06:56.828Z,1011.03
2023-03-28T08:07:56.874Z,1011.04
2023-03-28T08:08:56.827Z,1011.05
2023-03-28T08:09:59.036Z,1011.09
2023-03-28T08:10:57.917Z,1011.09
2023-03-28T08:11:56.809Z,1011.05
2023-03-28T08:12:56.777Z,1011.11
2023-03-28T08:13:56.781Z,1011.08
2023-03-28T08:14:57.755Z,1011.03
2023-03-28T08:15:57.776Z,1011.11
2023-03-28T08:16:56.760Z,1011.13
2023-03-28T08:17:56.792Z,1011.23
2023-03-28T08:19:10.021Z,1011.15
2023-03-28T08:19:57.700Z,1011.23
2023-03-28T08:20:56.708Z,1011.28
2023-03-28T08:21:56.703Z,1011.28
2023-03-28T08:22:56.661Z,1011.21
2023-03-28T08:23:57.700Z,1011.30
2023-03-28T08:24:56.660Z,1011.25
2023-03-28T08:25:56.638Z,1011.31
2023-03-28T08:26:56.620Z,1011.27
2023-03-28T08:27:56.596Z,1011.29
2023-03-28T08:28:57.609Z,1011.24
2023-03-28T08:29:56.640Z,1011.32
2023-03-28T08:30:56.598Z,1011.33
2023-03-28T08:31:57.614Z,1011.39
2023-03-28T08:32:57.600Z,1011.30
2023-03-28T08:33:57.703Z,1011.24
2023-03-28T08:34:56.532Z,1011.36
2023-03-28T08:35:57.565Z,1011.33
2023-03-28T08:36:56.532Z,1011.31
2023-03-28T08:37:56.526Z,1011.34
2023-03-28T08:38:56.478Z,1011.32
2023-03-28T08:39:57.500Z,1011.27
2023-03-28T08:40:56.541Z,1011.30
2023-03-28T08:41:56.464Z,1011.34
2023-03-28T08:42:56.457Z,1011.33
2023-03-28T08:43:57.476Z,1011.32
2023-03-28T08:44:56.434Z,1011.31
2023-03-28T08:45:56.412Z,1011.34
2023-03-28T08:46:57.470Z,1011.29
2023-03-28T08:47:56.452Z,1011.45
2023-03-28T08:48:56.396Z,1011.39
2023-03-28T08:49:56.437Z,1011.40
2023-03-28T08:50:56.402Z,1011.42
2023-03-28T08:51:56.349Z,1011.44
2023-03-28T08:52:56.370Z,1011.41
2023-03-28T08:53:56.322Z,1011.39
2023-03-28T08:54:56.376Z,1011.40
2023-03-28T08:55:56.360Z,1011.35
2023-03-28T08:56:56.312Z,1011.48
2023-03-28T08:57:56.287Z,1011.55
2023-03-28T08:58:56.285Z,1011.46
2023-03-28T08:59:56.275Z,1011.53
2023-03-28T09:00:57.273Z,1011.57
2023-03-28T09:01:56.385Z,1011.50
2023-03-28T09:02:56.361Z,1011.47
2023-03-28T09:03:56.354Z,1011.47
2023-03-28T09:05:05.105Z,1011.47
2023-03-28T09:05:57.231Z,1011.54
2023-03-28T09:06:56.193Z,1011.46
2023-03-28T09:07:56.235Z,1011.53
2023-03-28T09:08:56.191Z,1011.52
2023-03-28T09:09:56.153Z,1011.52
2023-03-28T09:10:57.304Z,1011.51
2023-03-28T09:11:56.129Z,1011.52
2023-03-28T09:12:56.151Z,1011.56
2023-03-28T09:13:57.160Z,1011.60
2023-03-28T09:14:56.143Z,1011.57
2023-03-28T09:15:56.212Z,1011.55
2023-03-28T09:16:56.100Z,1011.55
2023-03-28T09:17:56.114Z,1011.58
2023-03-28T09:18:56.089Z,1011.60
2023-03-28T09:19:57.076Z,1011.60
2023-03-28T09:20:57.098Z,1011.58
2023-03-28T09:22:12.801Z,1011.54
2023-03-28T09:22:57.039Z,1011.62
2023-03-28T09:23:56.002Z,1011.62
2023-03-28T09:24:56.032Z,1011.63
2023-03-28T09:25:55.978Z,1011.59
2023-03-28T09:26:55.964Z,1011.58
2023-03-28T09:27:55.956Z,1011.53
2023-03-28T09:28:55.946Z,1011.54
2023-03-28T09:29:55.968Z,1011.52
2023-03-28T09:30:55.958Z,1011.63
2023-03-28T09:31:55.933Z,1011.65
2023-03-28T09:32:55.932Z,1011.74
2023-03-28T09:33:55.896Z,1011.66
2023-03-28T09:34:55.874Z,1011.72
2023-03-28T09:35:55.918Z,1011.70
2023-03-28T09:36:55.946Z,1011.67
2023-03-28T09:37:55.876Z,1011.66
2023-03-28T09:38:55.826Z,1011.63
2023-03-28T09:39:55.830Z,1011.66
2023-03-28T09:40:56.843Z,1011.67
2023-03-28T09:41:55.824Z,1011.67
2023-03-28T09:42:56.804Z,1011.63
2023-03-28T09:43:57.274Z,1011.59
2023-03-28T09:44:55.800Z,1011.66
2023-03-28T09:45:56.957Z,1011.71
2023-03-28T09:46:55.754Z,1011.64
2023-03-28T09:47:56.677Z,1011.70
2023-03-28T09:48:55.857Z,1011.72
2023-03-28T09:50:05.607Z,1011.71
2023-03-28T09:50:56.695Z,1011.73
2023-03-28T09:51:55.738Z,1011.74
2023-03-28T09:52:55.700Z,1011.77
2023-03-28T09:53:55.681Z,1011.79
2023-03-28T09:54:55.709Z,1011.72
2023-03-28T09:56:04.266Z,1011.66
2023-03-28T09:56:56.742Z,1011.66
2023-03-28T09:57:55.630Z,1011.73
2023-03-28T09:58:55.636Z,1011.84
2023-03-28T09:59:55.607Z,1011.68
2023-03-28T10:00:55.628Z,1011.66
2023-03-28T10:01:55.694Z,1011.68
2023-03-28T10:02:56.636Z,1011.71
2023-03-28T10:03:55.557Z,1011.66
2023-03-28T10:04:55.664Z,1011.69
2023-03-28T10:05:56.519Z,1011.67
2023-03-28T10:06:56.556Z,1011.66
2023-03-28T10:07:55.587Z,1011.65
2023-03-28T10:08:55.509Z,1011.61
2023-03-28T10:09:55.517Z,1011.63
2023-03-28T10:10:55.514Z,1011.55
2023-03-28T10:11:56.470Z,1011.59
2023-03-28T10:12:55.460Z,1011.64
2023-03-28T10:13:55.580Z,1011.61
2023-03-28T10:14:56.442Z,1011.66
2023-03-28T10:15:55.469Z,1011.56
2023-03-28T10:16:56.417Z,1011.61
2023-03-28T10:17:56.411Z,1011.66
2023-03-28T10:18:55.439Z,1011.61
2023-03-28T10:19:55.404Z,1011.65
2023-03-28T10:20:56.385Z,1011.55
2023-03-28T10:21:55.370Z,1011.59
2023-03-28T10:22:55.351Z,1011.58
2023-03-28T10:23:55.392Z,1011.59
2023-03-28T10:24:55.328Z,1011.73
2023-03-28T10:25:55.376Z,1011.67
2023-03-28T10:26:55.300Z,1011.59
2023-03-28T10:27:55.315Z,1011.55
2023-03-28T10:28:55.281Z,1011.63
2023-03-28T10:29:55.310Z,1011.60
2023-03-28T10:30:56.321Z,1011.50
2023-03-28T10:31:56.270Z,1011.64
2023-03-28T10:32:55.274Z,1011.72
2023-03-28T10:33:56.217Z,1011.50
2023-03-28T10:34:55.204Z,1011.53
2023-03-28T10:35:55.262Z,1011.59
2023-03-28T10:36:56.236Z,1011.52
2023-03-28T10:37:55.208Z,1011.57
2023-03-28T10:38:55.187Z,1011.58
2023-03-28T10:39:56.154Z,1011.64
2023-03-28T10:40:56.152Z,1011.63
2023-03-28T10:41:55.201Z,1011.64
2023-03-28T10:42:55.121Z,1011.58
2023-03-28T10:43:56.137Z,1011.56
2023-03-28T10:44:55.115Z,1011.63
2023-03-28T10:45:56.165Z,1011.60
2023-03-28T10:46:55.198Z,1011.59
2023-03-28T10:47:55.160Z,1011.63
2023-03-28T10:48:55.084Z,1011.68
2023-03-28T10:49:55.075Z,1011.68
2023-03-28T10:50:55.075Z,1011.61
2023-03-28T10:51:56.037Z,1011.66
2023-03-28T10:52:55.026Z,1011.73
2023-03-28T10:53:54.999Z,1011.69
2023-03-28T10:54:55.996Z,1011.68
2023-03-28T10:55:55.001Z,1011.64
2023-03-28T10:56:56.180Z,1011.64
2023-03-28T10:57:54.996Z,1011.61
2023-03-28T10:58:54.973Z,1011.67
2023-03-28T10:59:54.944Z,1011.68
2023-03-28T11:00:54.967Z,1011.61
2023-03-28T11:01:55.065Z,1011.70
2023-03-28T11:02:55.006Z,1011.64
2023-03-28T11:03:55.080Z,1011.63
2023-03-28T11:04:54.886Z,1011.68
2023-03-28T11:06:05.810Z,1011.64
2023-03-28T11:06:55.891Z,1011.64
2023-03-28T11:07:54.892Z,1011.63
2023-03-28T11:08:54.860Z,1011.66
2023-03-28T11:09:55.856Z,1011.59
2023-03-28T11:10:54.838Z,1011.59
2023-03-28T11:11:54.857Z,1011.65
2023-03-28T11:12:56.649Z,1011.68
2023-03-28T11:13:54.867Z,1011.72
2023-03-28T11:14:54.792Z,1011.73
2023-03-28T11:15:54.836Z,1011.73
2023-03-28T11:16:54.815Z,1011.68
2023-03-28T11:17:55.767Z,1011.75
2023-03-28T11:18:55.758Z,1011.69
2023-03-28T11:19:54.739Z,1011.71
2023-03-28T11:20:54.701Z,1011.73
2023-03-28T11:21:54.740Z,1011.72
2023-03-28T11:23:04.965Z,1011.76
2023-03-28T11:23:55.745Z,1011.72
2023-03-28T11:24:54.675Z,1011.70
2023-03-28T11:25:54.683Z,1011.63
2023-03-28T11:27:05.011Z,1011.66
2023-03-28T11:27:55.648Z,1011.71
2023-03-28T11:28:54.629Z,1011.72
2023-03-28T11:29:54.668Z,1011.68
2023-03-28T11:30:54.605Z,1011.65
2023-03-28T11:31:54.655Z,1011.64
2023-03-28T11:32:54.630Z,1011.65
2023-03-28T11:33:54.571Z,1011.58
2023-03-28T11:34:54.624Z,1011.76
2023-03-28T11:35:54.595Z,1011.70
2023-03-28T11:36:54.563Z,1011.75
2023-03-28T11:37:54.549Z,1011.64
2023-03-28T11:38:54.554Z,1011.71
2023-03-28T11:39:54.512Z,1011.67
2023-03-28T11:40:54.560Z,1011.59
2023-03-28T11:41:54.482Z,1011.52
2023-03-28T11:42:54.483Z,1011.57
2023-03-28T11:43:54.484Z,1011.56
2023-03-28T11:44:54.450Z,1011.57
2023-03-28T11:45:54.584Z,1011.49
2023-03-28T11:46:54.455Z,1011.63
2023-03-28T11:47:54.483Z,1011.58
2023-03-28T11:48:55.428Z,1011.61
2023-03-28T11:49:54.435Z,1011.61
2023-03-28T11:50:54.444Z,1011.68
2023-03-28T11:51:54.405Z,1011.64
2023-03-28T11:52:54.436Z,1011.66
2023-03-28T11:53:54.350Z,1011.63
2023-03-28T11:54:54.347Z,1011.61
2023-03-28T11:55:54.360Z,1011.60
2023-03-28T11:56:54.384Z,1011.59
2023-03-28T11:57:54.366Z,1011.62
2023-03-28T11:58:55.320Z,1011.63
2023-03-28T11:59:54.295Z,1011.61
2023-03-28T12:00:55.337Z,1011.60
2023-03-28T12:01:54.344Z,1011.57
2023-03-28T12:02:54.500Z,1011.58
2023-03-28T12:03:54.422Z,1011.55
2023-03-28T12:04:55.301Z,1011.55